createdAt,value
2022-07-26T00:00:15.419Z,19.40
2022-07-26T00:02:47.526Z,19.40
2022-07-26T00:05:16.758Z,19.40
2022-07-26T00:07:44.814Z,19.40
2022-07-26T00:10:11.863Z,19.30
2022-07-26T00:12:38.956Z,19.30
2022-07-26T00:15:10.654Z,19.30
2022-07-26T00:17:40.071Z,19.30
2022-07-26T00:20:07.740Z,19.20
2022-07-26T00:22:34.786Z,19.30
2022-07-26T00:25:07.406Z,19.20
2022-07-26T00:27:37.238Z,19.20
2022-07-26T00:30:07.468Z,19.20
2022-07-26T00:32:34.735Z,19.20
2022-07-26T00:35:01.609Z,19.20
2022-07-26T00:37:29.544Z,19.20
2022-07-26T00:39:56.478Z,19.10
2022-07-26T00:42:23.389Z,19.10
2022-07-26T00:44:50.513Z,19.10
2022-07-26T00:47:17.615Z,19.10
2022-07-26T00:49:44.749Z,19.10
2022-07-26T00:52:12.158Z,19.00
2022-07-26T00:54:43.868Z,19.00
2022-07-26T00:57:11.188Z,19.00
2022-07-26T00:59:38.605Z,19.00
2022-07-26T01:02:07.411Z,18.90
2022-07-26T01:04:34.748Z,18.90
2022-07-26T01:07:02.747Z,18.90
2022-07-26T01:09:42.657Z,18.90
2022-07-26T01:12:10.175Z,19.00
2022-07-26T01:14:37.231Z,18.90
2022-07-26T01:17:04.204Z,18.90
2022-07-26T01:19:31.111Z,18.90
2022-07-26T01:22:00.131Z,18.80
2022-07-26T01:24:26.988Z,18.80
2022-07-26T01:26:55.658Z,18.80
2022-07-26T01:29:23.646Z,18.70
2022-07-26T01:32:04.017Z,18.70
2022-07-26T01:34:31.225Z,18.70
2022-07-26T01:36:58.537Z,18.60
2022-07-26T01:39:25.436Z,18.60
2022-07-26T01:41:52.810Z,18.50
2022-07-26T01:44:19.618Z,18.50
2022-07-26T01:46:46.452Z,18.50
2022-07-26T01:49:13.300Z,18.50
2022-07-26T01:51:40.530Z,18.50
2022-07-26T01:54:07.705Z,18.50
2022-07-26T01:56:35.132Z,18.50
2022-07-26T01:59:02.142Z,18.50
2022-07-26T02:01:39.617Z,18.50
2022-07-26T02:04:08.460Z,18.50
2022-07-26T02:06:35.790Z,18.50
2022-07-26T02:09:06.431Z,18.50
2022-07-26T02:11:34.628Z,18.40
2022-07-26T02:14:03.195Z,18.40
2022-07-26T02:16:30.162Z,18.40
2022-07-26T02:18:57.140Z,18.40
2022-07-26T02:21:24.016Z,18.30
2022-07-26T02:23:50.842Z,18.30
2022-07-26T02:26:17.680Z,18.20
2022-07-26T02:28:44.493Z,18.20
2022-07-26T02:31:11.675Z,18.20
2022-07-26T02:33:42.246Z,18.20
2022-07-26T02:36:09.093Z,18.10
2022-07-26T02:38:35.950Z,18.10
2022-07-26T02:41:02.852Z,18.20
2022-07-26T02:43:31.674Z,18.10
2022-07-26T02:46:00.870Z,18.10
2022-07-26T02:48:32.271Z,18.10
2022-07-26T02:50:59.539Z,18.20
2022-07-26T02:53:26.438Z,18.10
2022-07-26T02:55:53.264Z,18.10
2022-07-26T02:58:21.662Z,18.10
2022-07-26T03:00:48.752Z,18.10
2022-07-26T03:03:15.956Z,18.10
2022-07-26T03:05:42.978Z,18.10
2022-07-26T03:08:09.868Z,18.00
2022-07-26T03:10:36.747Z,18.00
2022-07-26T03:13:03.639Z,18.00
2022-07-26T03:15:30.758Z,18.10
2022-07-26T03:17:57.677Z,18.00
2022-07-26T03:20:24.921Z,18.10
2022-07-26T03:22:51.778Z,18.00
2022-07-26T03:25:18.652Z,18.00
2022-07-26T03:27:45.497Z,18.00
2022-07-26T03:30:12.872Z,18.00
2022-07-26T03:32:39.987Z,18.00
2022-07-26T03:35:07.832Z,18.00
2022-07-26T03:37:44.864Z,17.90
2022-07-26T03:40:17.063Z,17.90
2022-07-26T03:42:45.924Z,17.90
2022-07-26T03:45:13.608Z,17.90
2022-07-26T03:47:40.531Z,17.90
2022-07-26T03:50:08.677Z,17.90
2022-07-26T03:52:35.537Z,17.90
2022-07-26T03:55:22.297Z,18.00
2022-07-26T03:57:49.321Z,18.00
2022-07-26T04:00:16.252Z,18.00
2022-07-26T04:02:43.258Z,18.00
2022-07-26T04:05:10.710Z,18.00
2022-07-26T04:07:52.833Z,18.00
2022-07-26T04:10:21.885Z,18.00
2022-07-26T04:12:49.741Z,18.00
2022-07-26T04:15:19.017Z,17.90
2022-07-26T04:17:48.287Z,17.90
2022-07-26T04:20:15.868Z,18.00
2022-07-26T04:22:42.829Z,17.90
2022-07-26T04:25:10.046Z,17.90
2022-07-26T04:27:38.796Z,17.90
2022-07-26T04:30:12.418Z,17.90
2022-07-26T04:32:42.116Z,17.90
2022-07-26T04:35:09.390Z,17.90
2022-07-26T04:37:43.885Z,17.90
2022-07-26T04:40:21.501Z,18.00
2022-07-26T04:42:50.294Z,18.00
2022-07-26T04:45:17.443Z,18.00
2022-07-26T04:47:47.416Z,18.00
2022-07-26T04:50:16.530Z,18.00
2022-07-26T04:52:43.478Z,18.10
2022-07-26T04:55:10.821Z,18.00
2022-07-26T04:57:37.945Z,18.00
2022-07-26T05:00:23.267Z,18.00
2022-07-26T05:02:53.304Z,18.00
2022-07-26T05:05:20.813Z,18.00
2022-07-26T05:07:50.575Z,17.90
2022-07-26T05:10:19.151Z,17.90
2022-07-26T05:12:47.263Z,17.90
2022-07-26T05:15:15.608Z,17.90
2022-07-26T05:17:43.587Z,18.00
2022-07-26T05:20:14.033Z,18.00
2022-07-26T05:22:41.317Z,18.10
2022-07-26T05:25:08.961Z,18.10
2022-07-26T05:27:35.980Z,18.20
2022-07-26T05:30:03.330Z,18.10
2022-07-26T05:32:30.163Z,18.00
2022-07-26T05:34:57.104Z,18.10
2022-07-26T05:37:23.982Z,18.10
2022-07-26T05:39:50.907Z,18.20
2022-07-26T05:42:17.727Z,18.20
2022-07-26T05:44:44.641Z,18.10
2022-07-26T05:47:12.047Z,18.00
2022-07-26T05:49:40.401Z,18.00
2022-07-26T05:52:08.731Z,18.00
2022-07-26T05:54:36.040Z,18.00
2022-07-26T05:57:03.323Z,18.10
2022-07-26T05:59:30.440Z,18.20
2022-07-26T06:01:57.438Z,18.20
2022-07-26T06:04:26.654Z,18.30
2022-07-26T06:06:55.024Z,18.20
2022-07-26T06:09:24.297Z,18.40
2022-07-26T06:11:51.493Z,18.60
2022-07-26T06:14:19.315Z,18.90
2022-07-26T06:16:49.796Z,19.10
2022-07-26T06:19:16.777Z,19.20
2022-07-26T06:21:45.655Z,19.10
2022-07-26T06:24:13.298Z,19.00
2022-07-26T06:26:40.465Z,18.90
2022-07-26T06:29:07.514Z,18.90
2022-07-26T06:31:34.596Z,18.90
2022-07-26T06:34:01.625Z,18.90
2022-07-26T06:36:30.769Z,18.90
2022-07-26T06:38:58.385Z,18.90
2022-07-26T06:41:25.352Z,19.00
2022-07-26T06:43:52.339Z,19.00
2022-07-26T06:46:21.019Z,19.10
2022-07-26T06:48:53.119Z,19.20
2022-07-26T06:51:24.251Z,19.30
2022-07-26T06:53:51.354Z,19.30
2022-07-26T06:56:19.106Z,19.20
2022-07-26T06:58:46.387Z,19.30
2022-07-26T07:01:13.442Z,19.40
2022-07-26T07:04:00.393Z,19.60
2022-07-26T07:06:27.215Z,19.60
2022-07-26T07:08:54.075Z,19.50
2022-07-26T07:11:21.279Z,19.70
2022-07-26T07:13:48.883Z,20.00
2022-07-26T07:16:15.801Z,19.90
2022-07-26T07:18:42.754Z,20.20
2022-07-26T07:21:09.559Z,20.40
2022-07-26T07:23:36.370Z,20.10
2022-07-26T07:26:03.276Z,19.90
2022-07-26T07:28:30.229Z,19.70
2022-07-26T07:30:57.108Z,19.60
2022-07-26T07:33:25.966Z,19.60
2022-07-26T07:35:58.877Z,19.80
2022-07-26T07:38:25.943Z,19.80
2022-07-26T07:40:53.207Z,20.00
2022-07-26T07:43:20.128Z,20.20
2022-07-26T07:45:48.833Z,20.20
2022-07-26T07:48:15.848Z,19.80
2022-07-26T07:50:42.808Z,19.70
2022-07-26T07:53:09.644Z,19.70
2022-07-26T07:55:41.511Z,19.70
2022-07-26T07:58:12.980Z,19.80
2022-07-26T08:00:41.510Z,19.90
2022-07-26T08:03:08.413Z,20.10
2022-07-26T08:05:35.596Z,20.10
2022-07-26T08:08:08.130Z,20.30
2022-07-26T08:10:38.807Z,20.50
2022-07-26T08:13:16.015Z,20.70
2022-07-26T08:15:48.034Z,20.70
2022-07-26T08:18:16.259Z,20.90
2022-07-26T08:20:43.618Z,21.10
2022-07-26T08:23:10.660Z,21.50
2022-07-26T08:25:42.613Z,21.60
2022-07-26T08:28:38.100Z,21.70
2022-07-26T08:31:06.895Z,21.70
2022-07-26T08:33:33.776Z,21.80
2022-07-26T08:36:00.635Z,21.50
2022-07-26T08:38:27.576Z,21.20
2022-07-26T08:40:54.701Z,20.80
2022-07-26T08:43:21.581Z,19.80
2022-07-26T08:45:49.949Z,18.80
2022-07-26T08:48:18.341Z,18.40
2022-07-26T08:50:45.668Z,18.10
2022-07-26T08:53:13.364Z,17.70
2022-07-26T08:56:05.398Z,17.50
2022-07-26T08:58:27.529Z,17.30
2022-07-26T09:01:09.122Z,17.20
2022-07-26T09:03:39.316Z,17.20
2022-07-26T09:06:20.253Z,17.30
2022-07-26T09:08:49.354Z,17.50
2022-07-26T09:11:25.145Z,18.00
2022-07-26T09:13:54.435Z,18.50
2022-07-26T09:16:21.567Z,19.00
2022-07-26T09:18:48.671Z,19.10
2022-07-26T09:21:36.470Z,19.00
2022-07-26T09:24:03.593Z,19.10
2022-07-26T09:26:30.632Z,19.00
2022-07-26T09:29:08.030Z,19.30
2022-07-26T09:31:36.193Z,19.80
2022-07-26T09:34:04.659Z,19.90
2022-07-26T09:36:31.670Z,19.90
2022-07-26T09:39:01.575Z,19.70
2022-07-26T09:41:31.770Z,19.50
2022-07-26T09:44:04.579Z,19.70
2022-07-26T09:46:34.309Z,19.90
2022-07-26T09:49:18.195Z,19.80
2022-07-26T09:51:47.956Z,19.60
2022-07-26T09:54:30.176Z,19.50
2022-07-26T09:56:57.676Z,19.40
2022-07-26T09:59:26.285Z,19.60
2022-07-26T10:01:55.073Z,19.60
2022-07-26T10:04:22.430Z,19.60
2022-07-26T10:06:50.207Z,19.70
2022-07-26T10:09:18.797Z,19.70
2022-07-26T10:12:01.474Z,19.60
2022-07-26T10:14:35.647Z,19.30
2022-07-26T10:17:32.864Z,19.10
2022-07-26T10:20:10.547Z,19.30
2022-07-26T10:22:46.539Z,19.10
2022-07-26T10:25:19.763Z,19.00
2022-07-26T10:27:59.916Z,18.80
2022-07-26T10:30:34.157Z,18.70
2022-07-26T10:33:15.637Z,18.60
2022-07-26T10:35:43.602Z,18.40
2022-07-26T10:38:15.193Z,18.30
2022-07-26T10:41:03.199Z,18.50
2022-07-26T10:43:41.117Z,18.70
2022-07-26T10:46:18.170Z,18.90
2022-07-26T10:48:58.858Z,19.10
2022-07-26T10:51:36.566Z,19.30
2022-07-26T10:54:05.474Z,19.40
2022-07-26T10:56:33.703Z,19.70
2022-07-26T10:59:02.900Z,20.10
2022-07-26T11:01:34.306Z,20.20
2022-07-26T11:04:01.317Z,20.80
2022-07-26T11:06:32.146Z,20.80
2022-07-26T11:09:10.088Z,21.10
2022-07-26T11:11:36.952Z,21.20
2022-07-26T11:14:12.964Z,21.60
2022-07-26T11:16:47.269Z,21.70
2022-07-26T11:19:15.495Z,21.90
2022-07-26T11:21:43.571Z,22.30
2022-07-26T11:24:10.806Z,22.40
2022-07-26T11:26:46.012Z,22.10
2022-07-26T11:29:17.593Z,21.30
2022-07-26T11:31:49.404Z,20.60
2022-07-26T11:34:22.738Z,20.50
2022-07-26T11:36:51.894Z,20.80
2022-07-26T11:39:26.602Z,21.20
2022-07-26T11:42:08.433Z,21.50
2022-07-26T11:44:36.318Z,21.70
2022-07-26T11:47:20.356Z,21.60
2022-07-26T11:50:00.121Z,21.30
2022-07-26T11:52:31.751Z,21.10
2022-07-26T11:54:59.565Z,20.70
2022-07-26T11:57:31.192Z,20.50
2022-07-26T11:59:59.748Z,20.70
2022-07-26T12:02:27.924Z,20.90
2022-07-26T12:05:17.868Z,21.20
2022-07-26T12:07:57.669Z,21.30
2022-07-26T12:10:25.304Z,21.10
2022-07-26T12:13:11.067Z,20.80
2022-07-26T12:15:45.487Z,20.60
2022-07-26T12:18:24.508Z,20.20
2022-07-26T12:21:08.032Z,20.10
2022-07-26T12:23:43.451Z,20.20
2022-07-26T12:26:24.682Z,20.30
2022-07-26T12:28:52.298Z,20.60
2022-07-26T12:31:37.220Z,20.20
2022-07-26T12:34:04.079Z,20.20
2022-07-26T12:36:33.855Z,20.10
2022-07-26T12:39:01.202Z,20.00
2022-07-26T12:41:32.015Z,20.10
2022-07-26T12:43:59.687Z,20.00
2022-07-26T12:46:26.736Z,20.00
2022-07-26T12:48:59.688Z,20.00
2022-07-26T12:51:27.473Z,20.10
2022-07-26T12:53:54.622Z,20.00
2022-07-26T12:56:21.496Z,20.00
2022-07-26T12:58:48.344Z,19.90
2022-07-26T13:01:15.383Z,20.10
2022-07-26T13:03:42.309Z,20.20
2022-07-26T13:06:09.147Z,20.40
2022-07-26T13:08:35.987Z,20.20
2022-07-26T13:11:02.878Z,20.60
2022-07-26T13:13:30.437Z,20.90
2022-07-26T13:15:57.301Z,21.10
2022-07-26T13:18:24.117Z,20.70
2022-07-26T13:20:51.343Z,20.50
2022-07-26T13:23:21.868Z,20.60
2022-07-26T13:25:50.131Z,20.60
2022-07-26T13:28:17.481Z,20.60
2022-07-26T13:30:45.092Z,20.60
2022-07-26T13:33:12.362Z,20.50
2022-07-26T13:35:41.202Z,20.20
2022-07-26T13:38:09.172Z,19.90
2022-07-26T13:40:36.320Z,19.60
2022-07-26T13:43:04.191Z,19.10
2022-07-26T13:45:31.044Z,18.90
2022-07-26T13:47:59.194Z,18.60
2022-07-26T13:50:27.557Z,18.50
2022-07-26T13:52:56.298Z,18.40
2022-07-26T13:55:23.875Z,18.40
2022-07-26T13:57:56.092Z,18.40
2022-07-26T14:00:27.146Z,18.40
2022-07-26T14:02:55.521Z,18.50
2022-07-26T14:05:23.015Z,18.60
2022-07-26T14:07:50.304Z,18.60
2022-07-26T14:10:17.322Z,18.70
2022-07-26T14:12:44.156Z,18.70
2022-07-26T14:15:15.429Z,18.70
2022-07-26T14:17:45.582Z,18.70
2022-07-26T14:20:13.037Z,18.70
2022-07-26T14:22:40.027Z,18.80
2022-07-26T14:25:07.453Z,18.80
2022-07-26T14:27:34.254Z,18.90
2022-07-26T14:30:01.051Z,19.00
2022-07-26T14:32:27.904Z,19.20
2022-07-26T14:34:54.708Z,19.20
2022-07-26T14:37:41.639Z,19.40
2022-07-26T14:40:09.324Z,19.60
2022-07-26T14:42:36.176Z,19.70
2022-07-26T14:45:03.133Z,19.90
2022-07-26T14:47:29.961Z,19.90
2022-07-26T14:49:56.809Z,19.90
2022-07-26T14:52:23.730Z,19.70
2022-07-26T14:54:50.560Z,19.40
2022-07-26T14:57:17.415Z,19.10
2022-07-26T14:59:44.234Z,19.00
2022-07-26T15:02:12.672Z,18.80
2022-07-26T15:04:39.547Z,18.60
2022-07-26T15:07:06.415Z,18.40
2022-07-26T15:09:33.232Z,18.40
2022-07-26T15:12:00.496Z,18.40
2022-07-26T15:14:27.324Z,18.40
2022-07-26T15:16:54.219Z,18.50
2022-07-26T15:19:25.659Z,18.70
2022-07-26T15:21:54.754Z,18.90
2022-07-26T15:24:23.003Z,19.30
2022-07-26T15:26:50.138Z,19.70
2022-07-26T15:29:16.938Z,20.10
2022-07-26T15:31:44.475Z,20.20
2022-07-26T15:34:11.651Z,20.20
2022-07-26T15:36:38.872Z,20.00
2022-07-26T15:39:16.509Z,19.90
2022-07-26T15:41:44.540Z,19.70
2022-07-26T15:44:12.465Z,19.90
2022-07-26T15:46:39.892Z,20.10
2022-07-26T15:49:07.649Z,20.20
2022-07-26T15:51:34.854Z,20.40
2022-07-26T15:54:02.931Z,20.60
2022-07-26T15:56:29.954Z,20.90
2022-07-26T15:58:56.853Z,20.90
2022-07-26T16:01:23.831Z,20.70
2022-07-26T16:03:50.850Z,20.60
2022-07-26T16:06:17.982Z,20.30
2022-07-26T16:09:05.889Z,20.30
2022-07-26T16:11:31.940Z,20.60
2022-07-26T16:14:01.813Z,21.00
2022-07-26T16:16:30.481Z,21.10
2022-07-26T16:18:57.546Z,21.10
2022-07-26T16:21:24.824Z,20.80
2022-07-26T16:23:52.006Z,20.70
2022-07-26T16:26:19.004Z,20.80
2022-07-26T16:28:45.994Z,20.60
2022-07-26T16:31:12.992Z,20.50
2022-07-26T16:33:46.534Z,20.30
2022-07-26T16:36:14.417Z,20.10
2022-07-26T16:38:41.608Z,20.00
2022-07-26T16:41:08.567Z,20.00
2022-07-26T16:43:35.719Z,20.00
2022-07-26T16:46:02.601Z,19.90
2022-07-26T16:48:29.467Z,20.00
2022-07-26T16:50:56.335Z,20.40
2022-07-26T16:53:23.168Z,21.20
2022-07-26T16:55:51.916Z,21.50
2022-07-26T16:58:19.723Z,21.50
2022-07-26T17:00:47.152Z,21.30
2022-07-26T17:03:15.859Z,20.80
2022-07-26T17:05:44.530Z,20.30
2022-07-26T17:08:11.618Z,19.90
2022-07-26T17:10:38.556Z,19.60
2022-07-26T17:13:05.527Z,19.40
2022-07-26T17:15:32.833Z,19.30
2022-07-26T17:17:59.778Z,19.00
2022-07-26T17:20:27.359Z,19.00
2022-07-26T17:22:54.338Z,18.80
2022-07-26T17:25:21.303Z,18.90
2022-07-26T17:27:48.220Z,18.90
2022-07-26T17:30:15.577Z,19.00
2022-07-26T17:32:42.699Z,19.00
2022-07-26T17:35:09.735Z,18.90
2022-07-26T17:37:36.667Z,19.00
2022-07-26T17:40:07.890Z,19.10
2022-07-26T17:42:35.824Z,19.10
2022-07-26T17:45:03.315Z,19.20
2022-07-26T17:47:30.800Z,19.10
2022-07-26T17:52:51.173Z,18.80
2022-07-26T17:55:19.001Z,18.80
2022-07-26T17:57:47.866Z,18.90
2022-07-26T18:00:16.738Z,19.20
2022-07-26T18:02:43.612Z,19.20
2022-07-26T18:05:14.136Z,19.00
2022-07-26T18:07:41.516Z,18.80
2022-07-26T18:10:09.997Z,18.50
2022-07-26T18:12:37.186Z,18.40
2022-07-26T18:15:04.670Z,18.30
2022-07-26T18:17:31.552Z,18.40
2022-07-26T18:19:59.141Z,18.40
2022-07-26T18:22:27.285Z,18.30
2022-07-26T18:24:54.166Z,18.30
2022-07-26T18:27:22.270Z,18.10
2022-07-26T18:29:49.592Z,18.00
2022-07-26T18:32:16.487Z,17.90
2022-07-26T18:34:51.420Z,17.90
2022-07-26T18:37:20.325Z,17.90
2022-07-26T18:39:47.629Z,17.90
2022-07-26T18:42:14.751Z,17.90
2022-07-26T18:44:41.739Z,17.90
2022-07-26T18:47:09.743Z,17.80
2022-07-26T18:49:36.677Z,17.80
2022-07-26T18:52:08.273Z,17.70
2022-07-26T18:54:35.897Z,17.70
2022-07-26T18:57:02.754Z,17.70
2022-07-26T18:59:30.935Z,17.60
2022-07-26T19:01:59.776Z,17.60
2022-07-26T19:04:27.489Z,17.60
2022-07-26T19:06:54.631Z,17.60
2022-07-26T19:09:21.485Z,17.50
2022-07-26T19:11:48.613Z,17.50
2022-07-26T19:14:15.503Z,17.40
2022-07-26T19:16:42.406Z,17.40
2022-07-26T19:19:10.486Z,17.30
2022-07-26T19:21:38.085Z,17.20
2022-07-26T19:24:05.364Z,17.20
2022-07-26T19:26:32.316Z,17.20
2022-07-26T19:28:59.175Z,17.20
2022-07-26T19:31:26.160Z,17.10
2022-07-26T19:33:53.157Z,17.10
2022-07-26T19:36:25.814Z,17.10
2022-07-26T19:38:57.514Z,17.10
2022-07-26T19:41:24.672Z,17.00
2022-07-26T19:43:51.512Z,17.00
2022-07-26T19:46:18.505Z,17.00
2022-07-26T19:48:45.514Z,16.90
2022-07-26T19:51:12.373Z,16.90
2022-07-26T19:53:39.265Z,16.90
2022-07-26T19:56:06.386Z,16.80
2022-07-26T19:58:33.437Z,16.70
2022-07-26T20:01:00.583Z,16.50
2022-07-26T20:03:28.787Z,16.40
2022-07-26T20:05:56.794Z,16.30
2022-07-26T20:08:24.369Z,16.10
2022-07-26T20:10:51.639Z,16.00
2022-07-26T20:13:18.954Z,15.90
2022-07-26T20:15:47.938Z,15.80
2022-07-26T20:18:14.841Z,15.70
2022-07-26T20:20:41.683Z,15.60
2022-07-26T20:23:11.033Z,15.50
2022-07-26T20:25:37.926Z,15.50
2022-07-26T20:28:04.977Z,15.50
2022-07-26T20:30:31.887Z,15.60
2022-07-26T20:32:58.833Z,15.60
2022-07-26T20:35:25.771Z,15.50
2022-07-26T20:37:52.607Z,15.50
2022-07-26T20:40:19.417Z,15.50
2022-07-26T20:42:47.576Z,15.40
2022-07-26T20:45:16.975Z,15.40
2022-07-26T20:47:44.172Z,15.30
2022-07-26T20:50:12.116Z,15.20
2022-07-26T20:52:41.371Z,15.10
2022-07-26T20:55:09.135Z,15.10
2022-07-26T20:57:36.715Z,15.00
2022-07-26T21:00:09.890Z,14.90
2022-07-26T21:02:36.891Z,14.90
2022-07-26T21:05:05.179Z,14.90
2022-07-26T21:07:53.902Z,14.90
2022-07-26T21:10:19.702Z,14.80
2022-07-26T21:12:49.265Z,14.70
2022-07-26T21:15:16.457Z,14.70
2022-07-26T21:17:43.465Z,14.60
2022-07-26T21:20:10.559Z,14.70
2022-07-26T21:22:38.109Z,14.60
2022-07-26T21:25:07.239Z,14.60
2022-07-26T21:27:34.130Z,14.50
2022-07-26T21:30:01.010Z,14.50
2022-07-26T21:32:31.572Z,14.50
2022-07-26T21:34:59.483Z,14.30
2022-07-26T21:37:26.441Z,14.20
2022-07-26T21:39:53.335Z,14.10
2022-07-26T21:42:20.237Z,14.10
2022-07-26T21:44:47.080Z,14.10
2022-07-26T21:47:13.918Z,14.10
2022-07-26T21:49:40.767Z,14.10
2022-07-26T21:52:07.721Z,14.10
2022-07-26T21:54:34.554Z,14.10
2022-07-26T21:57:01.447Z,14.10
2022-07-26T21:59:28.283Z,14.10
2022-07-26T22:01:55.274Z,14.10
2022-07-26T22:04:23.149Z,14.10
2022-07-26T22:06:50.143Z,14.00
2022-07-26T22:09:16.989Z,14.00
2022-07-26T22:11:43.852Z,14.00
2022-07-26T22:14:10.773Z,14.00
2022-07-26T22:16:37.640Z,14.00
2022-07-26T22:19:05.800Z,14.00
2022-07-26T22:21:32.660Z,14.00
2022-07-26T22:23:59.549Z,14.10
2022-07-26T22:26:30.995Z,14.20
2022-07-26T22:28:58.565Z,14.20
2022-07-26T22:31:25.950Z,14.20
2022-07-26T22:33:53.046Z,14.20
2022-07-26T22:36:20.329Z,14.10
2022-07-26T22:38:47.230Z,14.10
2022-07-26T22:41:14.095Z,14.00
2022-07-26T22:43:40.952Z,13.90
2022-07-26T22:46:07.939Z,13.90
2022-07-26T22:48:38.071Z,13.80
2022-07-26T22:51:05.557Z,13.70
2022-07-26T22:53:32.383Z,13.70
2022-07-26T22:55:59.282Z,13.70
2022-07-26T22:58:26.162Z,13.70
2022-07-26T23:00:53.724Z,13.60
2022-07-26T23:03:21.714Z,13.60
2022-07-26T23:05:50.023Z,13.50
2022-07-26T23:11:05.497Z,13.50
2022-07-26T23:13:32.422Z,13.40
2022-07-26T23:16:01.276Z,13.40
2022-07-26T23:18:29.976Z,13.30
2022-07-26T23:20:56.936Z,13.20
2022-07-26T23:23:25.396Z,13.30
2022-07-26T23:25:56.244Z,13.30
2022-07-26T23:28:35.411Z,13.30
2022-07-26T23:31:14.584Z,13.30
2022-07-26T23:33:50.670Z,13.30
2022-07-26T23:36:24.414Z,13.30
2022-07-26T23:38:51.512Z,13.30
2022-07-26T23:41:19.285Z,13.30
2022-07-26T23:43:46.284Z,13.30
2022-07-26T23:46:13.246Z,13.30
2022-07-26T23:48:40.222Z,13.30
2022-07-26T23:51:07.037Z,13.30
2022-07-26T23:53:33.880Z,13.30
2022-07-26T23:56:00.884Z,13.30
2022-07-26T23:58:27.916Z,13.40
